EGJA

Alderney Airport

Saint Anne, Guernsey
METAR EGJA 240820Z 20005KT 9999 BKN041 06/03 Q1012
Observed Flight Rules
Jan-24 @ 08:20 UTC (22 minutes ago) Visual Flight Rules
Wind Visibility Clouds
200° at 5 knots 10,000+ meters
  • Broken at 4,100' AGL
Temperatures Readings
Current 6°C / 43°F
Dewpoint 3°C / 37°F
Humidity 81%
Altimeter 29.88" Hg
Pressure 1011.92 hPa
Elevation 71
METAR EGJA 240820Z 20005KT 9999 BKN041 06/03 Q1012
Observed Flight Rules
Jan-24 @ 08:20 UTC
(22 minutes ago)
VFR
Wind Visibility
200° at 5 knots 10,000+ meters
Clouds
  • Broken at 4,100' AGL
Temperature Dewpoint
6°C / 43°F 3°C / 37°F
Humidity Altimeter Pressure
81% 29.88" Hg 1011.92 hPa